Time;durP1;ratioP1;P1;durP2;ratioP2;P2;SDS_P1;SDS_P2;PMS_P1;PMS_P2;Temp;Humidity;BMP_temperature;BMP_pressure;BME280_temperature;BME280_humidity;BME280_pressure;Samples;Min_cycle;Max_cycle;Signal;HPM_P1;HPM_P2
2022/03/14 00:01:46;;;;;;;21.27;3.87;;;6.10;99.90;;;;;;5090957;28;20225;-81
2022/03/14 00:04:13;;;;;;;15.37;4.03;;;6.10;99.90;;;;;;5091840;28;20214;-80
2022/03/14 00:06:40;;;;;;;20.10;4.30;;;6.10;99.90;;;;;;5076329;28;20203;-80
2022/03/14 00:09:07;;;;;;;13.20;3.73;;;6.10;99.90;;;;;;5072743;28;20287;-80
2022/03/14 00:11:37;;;;;;;22.87;4.60;;;6.10;99.90;;;;;;5082478;28;20930;-80
2022/03/14 00:14:07;;;;;;;19.07;4.43;;;5.90;99.90;;;;;;5079630;28;20316;-80
2022/03/14 00:16:39;;;;;;;19.77;4.00;;;6.20;99.90;;;;;;5080904;28;20205;-80
2022/03/14 00:19:07;;;;;;;20.67;4.57;;;6.00;99.90;;;;;;5090788;28;20202;-80
2022/03/14 00:21:39;;;;;;;19.67;4.40;;;6.20;99.90;;;;;;5094089;28;20718;-80
2022/03/14 00:24:08;;;;;;;16.67;3.97;;;6.10;99.90;;;;;;5073776;28;20207;-81
2022/03/14 00:26:35;;;;;;;15.80;4.27;;;6.10;99.90;;;;;;5074697;28;20207;-80
2022/03/14 00:29:03;;;;;;;19.73;4.17;;;6.20;99.90;;;;;;5092471;28;20222;-80
2022/03/14 00:31:30;;;;;;;18.93;4.67;;;6.20;99.90;;;;;;5087139;28;20220;-81
2022/03/14 00:33:59;;;;;;;20.00;5.13;;;6.20;99.90;;;;;;5076590;28;20260;-80
2022/03/14 00:36:27;;;;;;;16.63;4.60;;;6.30;99.90;;;;;;5095435;28;20206;-80
2022/03/14 00:38:54;;;;;;;19.43;4.70;;;6.40;99.90;;;;;;5094842;28;20237;-80
2022/03/14 00:41:22;;;;;;;18.53;4.93;;;6.20;99.90;;;;;;5094487;28;20202;-80
2022/03/14 00:43:51;;;;;;;16.33;4.03;;;6.40;99.90;;;;;;5093145;28;20220;-80
2022/03/14 00:46:18;;;;;;;16.17;4.53;;;6.50;99.90;;;;;;5088451;28;20202;-80
2022/03/14 00:48:46;;;;;;;17.47;4.50;;;6.30;99.90;;;;;;5085291;28;20205;-80
2022/03/14 00:51:14;;;;;;;19.83;5.10;;;6.40;99.90;;;;;;5089103;28;20290;-80
2022/03/14 00:53:42;;;;;;;21.03;4.60;;;6.40;99.90;;;;;;5101392;28;20311;-81
2022/03/14 00:56:09;;;;;;;18.23;4.73;;;6.40;99.90;;;;;;5107311;28;20235;-80
2022/03/14 00:58:36;;;;;;;16.20;3.67;;;6.40;99.90;;;;;;5094076;28;20217;-81
2022/03/14 01:01:04;;;;;;;20.37;4.40;;;6.40;99.90;;;;;;5095415;28;20230;-81
2022/03/14 01:03:31;;;;;;;18.80;4.47;;;6.40;99.90;;;;;;5087307;28;20201;-81
2022/03/14 01:05:58;;;;;;;17.53;4.03;;;6.50;99.90;;;;;;5094711;28;20233;-81
2022/03/14 01:08:26;;;;;;;11.50;4.30;;;6.40;99.90;;;;;;5090241;28;20226;-81
2022/03/14 01:10:54;;;;;;;17.57;4.60;;;6.40;99.90;;;;;;5089119;28;20226;-82
2022/03/14 01:13:21;;;;;;;16.50;4.53;;;6.30;99.90;;;;;;5084704;28;20250;-81
2022/03/14 01:15:48;;;;;;;16.63;4.57;;;6.30;99.90;;;;;;5082534;28;20201;-81
2022/03/14 01:18:15;;;;;;;18.07;4.83;;;6.30;99.90;;;;;;5085472;28;20228;-80
2022/03/14 01:20:42;;;;;;;18.23;4.17;;;6.30;99.90;;;;;;5104382;27;20267;-81
2022/03/14 01:23:10;;;;;;;16.37;4.40;;;6.40;99.90;;;;;;5093815;28;20728;-81
2022/03/14 01:25:38;;;;;;;20.80;4.60;;;6.30;99.90;;;;;;5093945;28;20241;-81
2022/03/14 01:28:06;;;;;;;19.53;5.13;;;6.30;99.90;;;;;;5094271;28;20206;-82
2022/03/14 01:30:33;;;;;;;15.27;4.53;;;6.50;99.90;;;;;;5092617;28;20289;-81
2022/03/14 01:33:00;;;;;;;20.90;4.50;;;6.50;99.90;;;;;;5093525;28;20218;-81
2022/03/14 01:35:27;;;;;;;16.90;4.27;;;6.40;99.90;;;;;;5093785;28;20202;-81
2022/03/14 01:37:55;;;;;;;21.23;4.50;;;6.40;99.90;;;;;;5114016;28;20205;-81
2022/03/14 01:40:23;;;;;;;14.40;4.23;;;6.50;99.90;;;;;;5114358;28;20221;-81
2022/03/14 01:42:52;;;;;;;16.37;4.07;;;6.60;99.90;;;;;;5114435;28;20362;-81
2022/03/14 01:45:19;;;;;;;13.90;4.03;;;6.50;99.90;;;;;;5106321;28;20281;-81
2022/03/14 01:47:48;;;;;;;18.93;4.30;;;6.70;99.90;;;;;;5077319;28;20209;-82
2022/03/14 01:50:18;;;;;;;19.77;4.70;;;6.60;99.90;;;;;;5090731;28;20289;-81
2022/03/14 01:52:46;;;;;;;16.27;3.80;;;6.50;99.90;;;;;;5072911;28;20225;-81
2022/03/14 01:55:14;;;;;;;14.93;4.30;;;6.50;99.90;;;;;;5089877;28;20628;-82
2022/03/14 01:57:42;;;;;;;18.10;4.53;;;6.60;99.90;;;;;;5113843;28;20201;-81
2022/03/14 02:00:13;;;;;;;20.87;3.90;;;6.70;99.90;;;;;;5113458;28;20249;-82
2022/03/14 02:02:40;;;;;;;17.27;3.87;;;6.80;99.90;;;;;;5073166;28;20233;-81
2022/03/14 02:05:07;;;;;;;18.40;3.87;;;6.80;99.90;;;;;;5087620;28;20712;-81
2022/03/14 02:07:34;;;;;;;16.60;3.67;;;6.70;99.90;;;;;;5095196;28;20284;-80
2022/03/14 02:10:02;;;;;;;20.13;4.20;;;6.70;99.90;;;;;;5113836;28;20289;-81
2022/03/14 02:12:29;;;;;;;16.23;3.50;;;6.70;99.90;;;;;;5086669;28;20253;-81
2022/03/14 02:14:56;;;;;;;17.90;4.20;;;6.70;99.90;;;;;;5099392;28;20255;-81
2022/03/14 02:17:24;;;;;;;18.53;4.43;;;6.70;99.90;;;;;;5083129;28;20708;-80
2022/03/14 02:19:51;;;;;;;19.60;3.87;;;6.60;99.90;;;;;;5093097;28;20230;-81
2022/03/14 02:22:20;;;;;;;15.40;3.97;;;6.60;99.90;;;;;;5092233;28;20238;-81
2022/03/14 02:24:48;;;;;;;18.27;3.90;;;6.50;99.90;;;;;;5086888;28;20573;-81
2022/03/14 02:27:17;;;;;;;22.23;4.70;;;6.40;99.90;;;;;;5072221;28;20241;-80
2022/03/14 02:29:45;;;;;;;19.03;4.00;;;6.60;99.90;;;;;;5081797;28;20202;-81
2022/03/14 02:32:13;;;;;;;18.00;4.07;;;6.40;99.90;;;;;;5078711;28;20293;-81
2022/03/14 02:34:40;;;;;;;20.07;4.10;;;6.60;99.90;;;;;;5072070;28;20227;-81
2022/03/14 02:37:08;;;;;;;15.83;4.17;;;6.40;99.90;;;;;;5072665;28;20235;-81
2022/03/14 02:39:37;;;;;;;16.13;4.00;;;6.50;99.90;;;;;;5086804;28;20681;-80
2022/03/14 02:42:05;;;;;;;16.53;4.20;;;6.40;99.90;;;;;;5091951;28;20201;-81
2022/03/14 02:44:34;;;;;;;17.20;4.63;;;6.50;99.90;;;;;;5081654;28;20277;-81
2022/03/14 02:47:04;;;;;;;16.00;4.47;;;6.40;99.90;;;;;;5087289;28;20197;-81
2022/03/14 02:49:32;;;;;;;14.87;4.13;;;6.20;99.90;;;;;;5083735;28;20202;-81
2022/03/14 02:51:59;;;;;;;17.00;3.97;;;6.20;99.90;;;;;;5092130;28;20327;-81
2022/03/14 02:54:26;;;;;;;18.90;4.17;;;6.20;99.90;;;;;;5092490;28;20258;-81
2022/03/14 02:56:54;;;;;;;16.37;4.10;;;6.30;99.90;;;;;;5091522;28;20721;-81
2022/03/14 02:59:22;;;;;;;14.73;4.37;;;6.30;99.90;;;;;;5092474;28;20222;-81
2022/03/14 03:01:49;;;;;;;13.60;4.33;;;6.10;99.90;;;;;;5074850;28;20214;-81
2022/03/14 03:04:16;;;;;;;15.63;4.57;;;6.30;99.90;;;;;;5084976;28;20272;-81
2022/03/14 03:06:45;;;;;;;16.40;4.07;;;6.00;99.90;;;;;;5100884;28;20229;-81
2022/03/14 03:09:13;;;;;;;20.57;4.50;;;6.00;99.90;;;;;;5091214;28;20277;-81
2022/03/14 03:11:40;;;;;;;17.33;4.20;;;5.90;99.90;;;;;;5092037;28;20289;-81
2022/03/14 03:14:09;;;;;;;21.70;4.93;;;6.00;99.90;;;;;;5091924;28;20665;-81
2022/03/14 03:16:36;;;;;;;21.30;4.40;;;5.80;99.90;;;;;;5080299;28;20207;-81
2022/03/14 03:19:04;;;;;;;14.07;4.23;;;6.00;99.90;;;;;;5075483;28;20229;-80
2022/03/14 03:21:38;;;;;;;18.17;4.30;;;5.80;99.90;;;;;;5089925;28;20794;-81
2022/03/14 03:24:07;;;;;;;14.10;4.90;;;5.60;99.90;;;;;;5092135;28;20198;-81
2022/03/14 03:26:34;;;;;;;16.23;5.10;;;5.60;99.90;;;;;;5105388;28;20579;-81
2022/03/14 03:29:01;;;;;;;18.80;4.90;;;5.80;99.90;;;;;;5071842;28;20942;-81
2022/03/14 03:31:30;;;;;;;22.97;5.00;;;5.70;99.90;;;;;;5071631;28;20209;-80
2022/03/14 03:33:57;;;;;;;21.23;5.13;;;5.70;99.90;;;;;;5071647;28;20586;-81
2022/03/14 03:36:23;;;;;;;17.90;4.77;;;5.60;99.90;;;;;;5102186;28;20240;-81
2022/03/14 03:38:51;;;;;;;20.73;4.93;;;5.70;99.90;;;;;;5107780;28;20288;-81
2022/03/14 03:41:18;;;;;;;19.80;4.97;;;5.90;99.90;;;;;;5080425;28;20237;-81
2022/03/14 03:43:44;;;;;;;19.33;4.90;;;5.70;99.90;;;;;;5091306;28;20223;-81
2022/03/14 03:46:11;;;;;;;17.90;5.33;;;5.90;99.90;;;;;;5086232;28;20240;-81
2022/03/14 03:48:40;;;;;;;17.87;5.23;;;6.00;99.90;;;;;;5083104;28;20234;-81
2022/03/14 03:51:06;;;;;;;20.13;5.20;;;5.80;99.90;;;;;;5071740;28;20309;-81
2022/03/14 03:53:33;;;;;;;24.23;4.97;;;5.90;99.90;;;;;;5073956;28;20250;-82
2022/03/14 03:56:01;;;;;;;15.47;4.17;;;5.80;99.90;;;;;;5090671;28;20312;-80
2022/03/14 03:58:28;;;;;;;16.60;4.80;;;5.80;99.90;;;;;;5095396;28;20257;-81
2022/03/14 04:00:55;;;;;;;17.47;5.17;;;5.70;99.90;;;;;;5085593;28;20198;-81
2022/03/14 04:03:22;;;;;;;19.30;5.77;;;5.70;99.90;;;;;;5075283;28;20230;-81
2022/03/14 04:05:51;;;;;;;18.47;4.53;;;5.80;99.90;;;;;;5103072;28;20219;-81
2022/03/14 04:08:19;;;;;;;23.17;5.13;;;5.50;99.90;;;;;;5081737;28;20232;-81
2022/03/14 04:10:54;;;;;;;23.20;5.77;;;5.80;99.90;;;;;;5094142;28;20251;-81
2022/03/14 04:13:22;;;;;;;22.13;4.63;;;5.60;99.90;;;;;;5081305;28;20214;-81
2022/03/14 04:15:52;;;;;;;19.83;4.70;;;5.40;99.90;;;;;;5074906;28;20198;-81
2022/03/14 04:18:19;;;;;;;18.87;4.47;;;5.40;99.90;;;;;;5090184;28;20196;-81
2022/03/14 04:20:47;;;;;;;20.47;4.53;;;5.40;99.90;;;;;;5115709;28;20343;-81
2022/03/14 04:23:17;;;;;;;19.63;4.47;;;5.40;99.90;;;;;;5115680;28;20232;-81
2022/03/14 04:25:44;;;;;;;19.90;4.53;;;5.60;99.90;;;;;;5108202;28;20284;-81
2022/03/14 04:28:11;;;;;;;22.43;4.73;;;5.50;99.90;;;;;;5083654;28;20213;-81
2022/03/14 04:30:39;;;;;;;21.37;4.83;;;5.50;99.90;;;;;;5095064;28;20666;-81
2022/03/14 04:33:08;;;;;;;24.77;5.23;;;5.60;99.90;;;;;;5075818;28;20245;-81
2022/03/14 04:35:36;;;;;;;16.20;4.10;;;5.60;99.90;;;;;;5074991;28;20199;-81
2022/03/14 04:38:04;;;;;;;17.10;4.20;;;5.70;99.90;;;;;;5081583;28;20665;-81
2022/03/14 04:40:33;;;;;;;16.37;3.97;;;5.70;99.90;;;;;;5083522;28;20198;-81
2022/03/14 04:43:04;;;;;;;22.43;4.93;;;5.60;99.90;;;;;;5092518;28;20198;-81
2022/03/14 04:45:31;;;;;;;18.67;4.13;;;5.70;99.90;;;;;;5104072;28;20244;-81
2022/03/14 04:47:59;;;;;;;18.53;4.80;;;5.70;99.90;;;;;;5087358;28;20233;-81
2022/03/14 04:50:26;;;;;;;18.07;3.97;;;5.60;99.90;;;;;;5094450;28;20638;-81
2022/03/14 04:52:53;;;;;;;19.83;4.70;;;5.50;99.90;;;;;;5099932;28;20699;-81
2022/03/14 04:55:20;;;;;;;20.67;4.23;;;5.60;99.90;;;;;;5107590;28;20249;-81
2022/03/14 04:57:48;;;;;;;14.47;3.60;;;5.50;99.90;;;;;;5094390;28;20203;-81
2022/03/14 05:00:17;;;;;;;15.87;4.10;;;5.60;99.90;;;;;;5094431;28;20769;-81
2022/03/14 05:02:44;;;;;;;13.77;4.23;;;5.40;99.90;;;;;;5078638;28;20285;-81
2022/03/14 05:05:12;;;;;;;16.53;3.60;;;5.50;99.90;;;;;;5074066;28;20247;-80
2022/03/14 05:07:39;;;;;;;19.90;4.37;;;5.50;99.90;;;;;;5072837;28;20205;-81
2022/03/14 05:10:07;;;;;;;15.77;4.33;;;5.30;99.90;;;;;;5089426;28;20227;-80
2022/03/14 05:12:35;;;;;;;18.47;4.00;;;5.20;99.90;;;;;;5093155;28;20307;-81
2022/03/14 05:15:04;;;;;;;21.20;4.50;;;5.40;99.90;;;;;;5102624;28;20217;-81
2022/03/14 05:17:31;;;;;;;13.77;3.77;;;5.20;99.90;;;;;;5091225;28;20282;-81
2022/03/14 05:19:58;;;;;;;13.47;3.93;;;5.40;99.90;;;;;;5094242;28;20645;-81
2022/03/14 05:22:25;;;;;;;15.80;4.80;;;5.30;99.90;;;;;;5073943;28;20688;-81
2022/03/14 05:24:53;;;;;;;21.00;4.47;;;5.20;99.90;;;;;;5077609;28;20245;-80
2022/03/14 05:27:20;;;;;;;18.63;4.63;;;5.10;99.90;;;;;;5073709;28;20208;-81
2022/03/14 05:29:47;;;;;;;16.30;4.13;;;5.20;99.90;;;;;;5089970;28;20289;-81
2022/03/14 05:32:15;;;;;;;18.03;4.10;;;5.30;99.90;;;;;;5093893;28;20287;-81
2022/03/14 05:34:42;;;;;;;14.83;4.43;;;5.30;99.90;;;;;;5098112;28;20259;-81
2022/03/14 05:37:09;;;;;;;17.60;4.57;;;5.40;99.90;;;;;;5095687;28;20690;-81
2022/03/14 05:39:35;;;;;;;20.73;4.90;;;5.20;99.90;;;;;;5087385;28;20306;-80
2022/03/14 05:42:03;;;;;;;16.90;4.47;;;5.20;99.90;;;;;;5093586;28;20234;-81
2022/03/14 05:44:30;;;;;;;16.40;4.30;;;5.20;99.90;;;;;;5089087;28;20238;-81
2022/03/14 05:46:57;;;;;;;17.40;4.00;;;5.10;99.90;;;;;;5076886;28;20202;-81
2022/03/14 05:49:25;;;;;;;11.60;4.03;;;5.10;99.90;;;;;;5101214;28;20232;-81
2022/03/14 05:51:52;;;;;;;20.17;4.10;;;5.20;99.90;;;;;;5092711;28;20692;-81
2022/03/14 05:54:19;;;;;;;17.10;4.80;;;5.20;99.90;;;;;;5072843;28;20312;-81
2022/03/14 05:56:46;;;;;;;20.57;4.30;;;5.30;99.90;;;;;;5073120;28;20288;-81
2022/03/14 05:59:14;;;;;;;16.90;4.10;;;5.40;99.90;;;;;;5072138;28;20308;-81
2022/03/14 06:01:41;;;;;;;12.60;4.40;;;5.30;99.90;;;;;;5073312;28;20645;-80
2022/03/14 06:04:08;;;;;;;13.37;4.00;;;5.20;99.90;;;;;;5072508;28;20198;-81
2022/03/14 06:06:37;;;;;;;13.83;4.27;;;5.30;99.90;;;;;;5079142;28;20288;-80
2022/03/14 06:09:04;;;;;;;15.07;4.30;;;5.20;99.90;;;;;;5086730;28;20670;-81
2022/03/14 06:11:31;;;;;;;18.90;3.80;;;5.20;99.90;;;;;;5073399;28;20234;-80
2022/03/14 06:13:58;;;;;;;15.43;4.23;;;5.20;99.90;;;;;;5072527;28;20257;-80
2022/03/14 06:16:26;;;;;;;18.93;4.07;;;5.30;99.90;;;;;;5072915;28;20209;-81
2022/03/14 06:18:59;;;;;;;14.67;4.20;;;5.60;99.90;;;;;;5097422;28;20197;-80
2022/03/14 06:21:26;;;;;;;17.63;4.20;;;5.60;99.90;;;;;;5087060;28;20237;-80
2022/03/14 06:23:54;;;;;;;11.17;4.27;;;5.70;99.90;;;;;;5085121;28;20658;-81
2022/03/14 06:26:21;;;;;;;13.37;4.50;;;5.70;99.90;;;;;;5094425;28;20287;-81
2022/03/14 06:28:48;;;;;;;20.03;4.30;;;5.70;99.90;;;;;;5087538;28;20292;-81
2022/03/14 06:31:16;;;;;;;17.23;3.93;;;5.80;99.90;;;;;;5089502;28;20228;-83
2022/03/14 06:33:42;;;;;;;13.07;4.13;;;5.80;99.90;;;;;;5090520;28;20204;-83
2022/03/14 06:36:09;;;;;;;14.23;4.40;;;5.70;99.90;;;;;;5098351;28;20232;-84
2022/03/14 06:38:38;;;;;;;11.60;3.53;;;5.80;99.90;;;;;;5084464;28;20720;-83
2022/03/14 06:41:07;;;;;;;15.30;3.43;;;5.80;99.90;;;;;;5090879;28;20201;-84
2022/03/14 06:43:35;;;;;;;13.70;3.77;;;6.00;99.90;;;;;;5092458;28;20201;-82
2022/03/14 06:46:02;;;;;;;10.57;3.50;;;6.10;99.90;;;;;;5079736;28;20208;-83
2022/03/14 06:48:29;;;;;;;14.13;3.90;;;6.10;99.90;;;;;;5072225;28;20223;-83
2022/03/14 06:50:56;;;;;;;8.90;3.33;;;6.20;99.90;;;;;;5087881;28;20305;-83
2022/03/14 06:53:23;;;;;;;10.30;3.43;;;6.10;99.90;;;;;;5091601;28;20696;-83
2022/03/14 06:55:49;;;;;;;10.00;2.93;;;6.30;99.90;;;;;;5103908;28;20374;-83
2022/03/14 06:58:18;;;;;;;14.80;3.37;;;6.40;99.90;;;;;;5074295;28;20271;-82
2022/03/14 07:00:44;;;;;;;10.00;3.03;;;6.20;99.90;;;;;;5072335;28;20266;-83
2022/03/14 07:03:11;;;;;;;12.43;3.17;;;6.20;99.90;;;;;;5071819;28;20227;-83
2022/03/14 07:05:38;;;;;;;10.87;3.57;;;6.20;99.90;;;;;;5072270;28;20221;-84
2022/03/14 07:08:05;;;;;;;9.43;3.40;;;6.30;99.90;;;;;;5090363;28;20665;-83
2022/03/14 07:10:33;;;;;;;7.80;3.13;;;6.30;99.90;;;;;;5110488;28;20220;-83
2022/03/14 07:13:00;;;;;;;5.97;2.67;;;6.10;99.90;;;;;;5112464;28;20209;-83
2022/03/14 07:15:28;;;;;;;10.50;3.60;;;6.30;99.90;;;;;;5112679;28;20320;-83
2022/03/14 07:17:55;;;;;;;10.23;3.53;;;6.20;99.90;;;;;;5112612;28;20235;-83
2022/03/14 07:20:24;;;;;;;10.60;3.70;;;6.30;99.90;;;;;;5112313;28;20251;-83
2022/03/14 07:22:54;;;;;;;8.83;3.77;;;6.30;99.90;;;;;;5112483;28;20211;-83
2022/03/14 07:25:24;;;;;;;12.13;3.90;;;6.50;99.90;;;;;;5111941;28;20197;-83
2022/03/14 07:27:51;;;;;;;12.80;3.70;;;6.40;99.90;;;;;;5088156;28;20198;-82
2022/03/14 07:30:18;;;;;;;10.60;4.10;;;6.50;99.90;;;;;;5091380;28;20216;-83
2022/03/14 07:32:46;;;;;;;10.13;3.70;;;6.60;99.90;;;;;;5078277;28;20293;-83
2022/03/14 07:35:14;;;;;;;10.40;3.60;;;6.70;99.90;;;;;;5071322;28;20662;-83
2022/03/14 07:37:41;;;;;;;8.77;3.30;;;6.70;99.90;;;;;;5071921;28;20285;-83
2022/03/14 07:40:09;;;;;;;9.00;3.30;;;6.70;99.90;;;;;;5071312;28;20233;-83
2022/03/14 07:42:40;;;;;;;8.60;2.97;;;6.80;99.90;;;;;;5071386;28;20286;-83
2022/03/14 07:45:09;;;;;;;11.73;3.07;;;6.90;99.90;;;;;;5071954;28;20213;-83
2022/03/14 07:47:36;;;;;;;7.47;2.80;;;6.90;99.90;;;;;;5072837;28;20206;-84
2022/03/14 07:50:06;;;;;;;10.33;3.50;;;7.00;99.90;;;;;;5080758;28;20289;-83
2022/03/14 07:52:33;;;;;;;13.97;3.70;;;7.10;99.90;;;;;;5091913;28;20194;-83
2022/03/14 07:55:00;;;;;;;11.03;3.40;;;7.10;99.90;;;;;;5091325;28;20218;-84
2022/03/14 07:57:28;;;;;;;7.40;2.90;;;7.40;99.90;;;;;;5091821;28;20241;-83
2022/03/14 07:59:55;;;;;;;8.47;2.80;;;7.60;99.90;;;;;;5091932;28;20228;-83
2022/03/14 08:02:22;;;;;;;9.07;3.57;;;7.90;99.90;;;;;;5091250;28;20290;-83
2022/03/14 08:04:49;;;;;;;7.93;3.10;;;8.30;99.90;;;;;;5091838;28;20198;-83
2022/03/14 08:07:18;;;;;;;9.57;3.07;;;8.70;99.90;;;;;;5080342;28;20285;-83
2022/03/14 08:09:45;;;;;;;7.03;2.87;;;10.10;99.90;;;;;;5071212;28;20207;-83
2022/03/14 08:12:12;;;;;;;7.83;2.63;;;11.30;99.90;;;;;;5071447;28;20281;-83
2022/03/14 08:14:40;;;;;;;6.17;2.57;;;12.00;99.90;;;;;;5071412;28;20227;-83
2022/03/14 08:17:07;;;;;;;7.93;2.90;;;12.50;99.90;;;;;;5071692;28;20226;-84
2022/03/14 08:19:34;;;;;;;6.50;2.83;;;13.10;99.90;;;;;;5071284;28;20674;-83
2022/03/14 08:22:02;;;;;;;5.65;2.40;;;13.40;99.90;;;;;;5079788;28;20222;-83
2022/03/14 08:24:30;;;;;;;8.73;2.72;;;13.60;99.90;;;;;;5111916;28;20225;-83
2022/03/14 08:26:57;;;;;;;5.07;2.50;;;14.30;99.90;;;;;;5099122;28;20747;-83
2022/03/14 08:29:24;;;;;;;6.90;2.65;;;15.20;99.90;;;;;;5091983;28;20234;-83
2022/03/14 08:31:51;;;;;;;6.55;2.40;;;14.60;99.90;;;;;;5089591;28;20333;-83
2022/03/14 08:34:18;;;;;;;6.60;2.35;;;15.00;99.90;;;;;;5091458;28;20251;-83
2022/03/14 08:36:45;;;;;;;5.05;2.30;;;14.60;99.90;;;;;;5083234;28;20195;-83
2022/03/14 08:39:12;;;;;;;4.97;2.47;;;14.20;99.90;;;;;;5070704;28;20615;-83
2022/03/14 08:41:40;;;;;;;5.55;2.25;;;14.70;99.90;;;;;;5072489;28;20199;-83
2022/03/14 08:44:08;;;;;;;3.58;2.20;;;14.80;99.90;;;;;;5074368;28;20294;-83
2022/03/14 08:46:38;;;;;;;5.20;1.83;;;13.50;99.90;;;;;;5074988;28;20195;-84
2022/03/14 08:49:05;;;;;;;5.05;1.70;;;13.60;99.90;;;;;;5087492;28;20202;-83
2022/03/14 08:51:33;;;;;;;4.07;1.80;;;13.00;99.90;;;;;;5095054;28;20627;-83
2022/03/14 08:54:00;;;;;;;3.33;1.60;;;13.10;99.90;;;;;;5094256;28;20202;-83
2022/03/14 08:56:27;;;;;;;3.75;1.70;;;13.00;99.90;;;;;;5081335;28;20254;-83
2022/03/14 08:58:55;;;;;;;3.45;1.55;;;13.60;99.90;;;;;;5074476;28;20251;-83
2022/03/14 09:01:22;;;;;;;3.85;1.33;;;12.80;99.90;;;;;;5074606;28;20211;-83
2022/03/14 09:03:49;;;;;;;3.75;1.50;;;13.20;99.90;;;;;;5074267;28;20239;-83
2022/03/14 09:06:17;;;;;;;4.60;1.67;;;13.70;99.90;;;;;;5074319;28;20214;-83
2022/03/14 09:08:45;;;;;;;13.40;2.30;;;13.80;99.90;;;;;;5081227;28;20197;-83
2022/03/14 09:11:11;;;;;;;3.42;1.48;;;13.10;99.90;;;;;;5115026;28;20229;-83
2022/03/14 09:13:39;;;;;;;4.45;1.40;;;14.20;99.90;;;;;;5114841;28;20237;-83
2022/03/14 09:16:08;;;;;;;6.13;1.58;;;14.40;99.90;;;;;;5114477;28;20217;-83
2022/03/14 09:18:35;;;;;;;5.78;1.83;;;14.30;99.90;;;;;;5114614;28;20521;-83
2022/03/14 09:21:02;;;;;;;3.90;1.52;;;14.00;99.90;;;;;;5109004;28;20229;-83
2022/03/14 09:23:29;;;;;;;4.80;1.60;;;13.80;99.90;;;;;;5074075;28;20619;-83
2022/03/14 09:25:57;;;;;;;4.70;1.50;;;13.80;99.90;;;;;;5074107;28;20647;-83
2022/03/14 09:28:25;;;;;;;6.75;1.75;;;14.20;99.90;;;;;;5073939;28;20211;-82
2022/03/14 09:30:52;;;;;;;3.77;1.57;;;14.90;99.90;;;;;;5073694;28;20226;-83
2022/03/14 09:33:21;;;;;;;3.97;1.40;;;14.40;99.90;;;;;;5073675;28;20662;-83
2022/03/14 09:35:48;;;;;;;5.25;1.75;;;14.40;99.90;;;;;;5073948;28;20317;-83
2022/03/14 09:38:17;;;;;;;4.93;1.60;;;14.70;99.90;;;;;;5112217;28;20262;-83
2022/03/14 09:40:45;;;;;;;4.33;1.53;;;14.70;99.90;;;;;;5105673;28;20194;-83
2022/03/14 09:43:15;;;;;;;4.07;1.40;;;14.00;99.90;;;;;;5093725;28;20587;-83
2022/03/14 09:45:47;;;;;;;4.35;1.40;;;14.70;99.90;;;;;;5093583;28;20194;-83
2022/03/14 09:48:15;;;;;;;4.15;1.58;;;15.40;99.90;;;;;;5093967;28;20237;-83
2022/03/14 09:50:45;;;;;;;5.63;1.65;;;15.30;99.90;;;;;;5092977;28;20195;-83
2022/03/14 09:53:14;;;;;;;3.00;1.40;;;15.70;99.90;;;;;;5093311;28;20240;-83
2022/03/14 09:55:46;;;;;;;4.57;1.50;;;14.70;99.90;;;;;;5093809;28;20229;-84
2022/03/14 09:58:15;;;;;;;4.18;1.33;;;15.00;99.90;;;;;;5078308;28;20302;-83
2022/03/14 10:00:43;;;;;;;4.28;1.52;;;15.30;99.90;;;;;;5073390;28;20231;-83
2022/03/14 10:03:10;;;;;;;5.00;1.73;;;14.90;99.90;;;;;;5088345;28;20194;-83
2022/03/14 10:05:37;;;;;;;5.28;1.65;;;14.50;99.90;;;;;;5092776;28;20285;-83
2022/03/14 10:08:09;;;;;;;4.35;1.30;;;15.40;99.90;;;;;;5088765;28;20191;-83
2022/03/14 10:10:37;;;;;;;5.97;1.45;;;16.60;99.90;;;;;;5091240;28;20198;-83
2022/03/14 10:13:06;;;;;;;6.30;1.63;;;16.20;99.90;;;;;;5083523;28;20248;-83
2022/03/14 10:15:37;;;;;;;4.28;1.67;;;17.10;99.90;;;;;;5073158;28;20646;-83
2022/03/14 10:18:11;;;;;;;4.93;1.50;;;16.40;99.90;;;;;;5073258;28;20209;-83
2022/03/14 10:20:39;;;;;;;6.25;1.63;;;16.00;99.90;;;;;;5073073;28;20238;-82
2022/03/14 10:23:06;;;;;;;5.00;1.40;;;16.30;99.90;;;;;;5073054;28;20289;-83
2022/03/14 10:25:34;;;;;;;3.05;1.48;;;16.30;99.90;;;;;;5073156;28;20681;-83
2022/03/14 10:28:02;;;;;;;4.35;1.30;;;15.90;99.90;;;;;;5073149;28;20235;-83
2022/03/14 10:30:30;;;;;;;5.38;1.42;;;15.00;99.90;;;;;;5072972;28;20226;-82
2022/03/14 10:33:12;;;;;;;4.63;1.52;;;15.80;99.90;;;;;;5088126;28;20249;-83
2022/03/14 10:35:41;;;;;;;5.10;1.73;;;16.70;99.90;;;;;;5110197;28;20297;-83
2022/03/14 10:38:10;;;;;;;5.53;2.08;;;16.20;99.90;;;;;;5113513;28;20842;-83
2022/03/14 10:40:40;;;;;;;5.72;1.58;;;16.30;99.90;;;;;;5113087;28;20661;-83
2022/03/14 10:43:09;;;;;;;4.25;1.60;;;17.20;99.90;;;;;;5113312;28;20362;-83
2022/03/14 10:45:38;;;;;;;5.95;1.75;;;17.80;99.90;;;;;;5113514;28;20204;-83
2022/03/14 10:48:06;;;;;;;3.88;1.10;;;17.90;99.90;;;;;;5113159;28;20198;-83
2022/03/14 10:50:35;;;;;;;4.18;1.50;;;17.60;99.90;;;;;;5099386;28;20267;-83
2022/03/14 10:53:08;;;;;;;3.63;1.40;;;17.70;96.20;;;;;;5092235;28;20252;-83
2022/03/14 10:55:38;;;;;;;5.70;1.35;;;17.00;96.80;;;;;;5094084;28;20304;-83
2022/03/14 10:58:10;;;;;;;4.55;1.20;;;16.50;96.40;;;;;;5092732;28;20363;-82
2022/03/14 11:00:53;;;;;;;3.13;1.15;;;16.50;96.80;;;;;;5092417;28;20285;-82
2022/03/14 11:03:25;;;;;;;6.25;1.33;;;17.30;92.10;;;;;;5092042;28;20289;-82
2022/03/14 11:05:53;;;;;;;7.38;1.63;;;17.00;91.10;;;;;;5092017;28;20281;-82
2022/03/14 11:08:27;;;;;;;4.80;1.60;;;15.90;96.50;;;;;;5092334;28;20298;-82
2022/03/14 11:10:56;;;;;;;4.75;1.50;;;16.70;95.70;;;;;;5092598;28;20229;-82
2022/03/14 11:13:24;;;;;;;5.00;1.38;;;16.50;82.10;;;;;;5091293;28;20284;-82
2022/03/14 11:15:51;;;;;;;4.22;1.75;;;16.90;72.10;;;;;;5092315;28;20267;-82
2022/03/14 11:18:19;;;;;;;3.25;1.40;;;17.60;91.30;;;;;;5091720;28;20244;-82
2022/03/14 11:20:46;;;;;;;4.38;1.42;;;16.70;88.00;;;;;;5091981;28;20643;-83
2022/03/14 11:23:14;;;;;;;3.55;1.38;;;17.00;73.10;;;;;;5091806;28;20259;-82
2022/03/14 11:25:44;;;;;;;4.75;1.80;;;16.20;61.40;;;;;;5082977;28;20196;-82
2022/03/14 11:28:16;;;;;;;4.03;1.30;;;16.40;86.80;;;;;;5089364;28;20207;-83
2022/03/14 11:30:57;;;;;;;4.63;1.40;;;17.40;71.40;;;;;;5077281;28;20282;-82
2022/03/14 11:33:25;;;;;;;3.67;1.40;;;17.20;74.20;;;;;;5071419;28;20290;-82
2022/03/14 11:35:52;;;;;;;4.03;1.40;;;17.50;50.70;;;;;;5071714;28;20250;-82
2022/03/14 11:38:20;;;;;;;2.53;1.33;;;16.70;62.90;;;;;;5071443;28;20234;-83
2022/03/14 11:40:49;;;;;;;6.10;1.88;;;16.30;67.20;;;;;;5072984;28;20238;-82
2022/03/14 11:43:18;;;;;;;3.60;1.40;;;15.90;74.30;;;;;;5071321;28;20229;-82
2022/03/14 11:45:46;;;;;;;4.75;1.73;;;16.10;79.10;;;;;;5071666;28;20203;-82
2022/03/14 11:48:14;;;;;;;4.00;1.23;;;16.30;82.50;;;;;;5071386;28;20199;-82
2022/03/14 11:50:46;;;;;;;3.45;1.38;;;16.60;83.50;;;;;;5084755;28;20288;-82
2022/03/14 11:53:20;;;;;;;5.18;1.63;;;16.80;83.80;;;;;;5091812;28;20198;-82
2022/03/14 11:55:54;;;;;;;3.67;1.48;;;16.30;85.20;;;;;;5082964;28;20214;-82
2022/03/14 11:58:35;;;;;;;3.58;1.40;;;16.50;78.80;;;;;;5071395;28;20411;-81
2022/03/14 12:01:16;;;;;;;3.47;1.30;;;15.90;75.30;;;;;;5071233;28;20202;-81
2022/03/14 12:03:46;;;;;;;3.72;1.23;;;15.80;85.90;;;;;;5096228;28;20285;-82
2022/03/14 12:06:13;;;;;;;4.03;1.20;;;16.20;86.50;;;;;;5112000;28;20615;-82
2022/03/14 12:09:01;;;;;;;5.22;1.48;;;15.90;85.20;;;;;;5112110;28;20285;-81
2022/03/14 12:11:40;;;;;;;4.63;1.38;;;16.00;90.10;;;;;;5106148;28;20253;-81
2022/03/14 12:14:11;;;;;;;4.28;1.67;;;15.70;93.60;;;;;;5092021;28;20281;-83
2022/03/14 12:16:40;;;;;;;2.92;1.23;;;15.80;88.00;;;;;;5108303;28;20734;-83
2022/03/14 12:19:27;;;;;;;3.65;1.40;;;15.40;67.50;;;;;;5107322;28;20202;-83
2022/03/14 12:21:54;;;;;;;4.40;1.47;;;14.50;70.90;;;;;;5095184;28;20667;-83
2022/03/14 12:24:42;;;;;;;4.77;1.40;;;15.00;59.80;;;;;;5095654;28;20264;-83
2022/03/14 12:27:15;;;;;;;5.90;1.60;;;15.40;59.70;;;;;;5089615;28;20195;-83
2022/03/14 12:29:44;;;;;;;3.97;1.73;;;16.70;81.90;;;;;;5083762;28;20206;-82
2022/03/14 12:32:28;;;;;;;4.82;1.60;;;16.80;90.90;;;;;;5095251;28;20286;-83
2022/03/14 12:35:06;;;;;;;5.25;1.70;;;16.50;84.00;;;;;;5095138;28;20194;-83
2022/03/14 12:37:39;;;;;;;7.95;1.55;;;16.50;90.80;;;;;;5095460;28;20226;-83
2022/03/14 12:40:09;;;;;;;5.80;1.63;;;16.70;91.00;;;;;;5095347;28;20622;-83
2022/03/14 12:42:40;;;;;;;5.88;1.30;;;16.70;90.40;;;;;;5095010;28;20249;-83
2022/03/14 12:45:29;;;;;;;4.28;1.27;;;16.90;88.20;;;;;;5094775;28;20244;-83
2022/03/14 12:47:58;;;;;;;4.93;1.52;;;16.50;72.30;;;;;;5074624;28;20231;-83
2022/03/14 12:50:57;;;;;;;4.05;1.83;;;16.70;86.70;;;;;;5086844;28;20210;-83
2022/03/14 12:53:44;;;;;;;4.30;1.52;;;16.40;69.90;;;;;;5084802;28;20195;-83
2022/03/14 12:56:20;;;;;;;4.60;1.40;;;16.50;77.50;;;;;;5073989;28;20230;-83